createdAt,value
2019-04-04T00:02:28.696Z,60.5
2019-04-04T00:07:30.077Z,60.5
2019-04-04T00:12:28.505Z,60.4
2019-04-04T00:17:28.736Z,60.4
2019-04-04T00:22:28.139Z,60.4
2019-04-04T00:27:27.809Z,60.5
2019-04-04T00:32:28.379Z,60.5
2019-04-04T00:37:28.749Z,60.5
2019-04-04T00:42:27.699Z,60.5
2019-04-04T00:47:28.226Z,60.6
2019-04-04T00:52:28.248Z,60.6
2019-04-04T00:57:27.506Z,60.5
2019-04-04T01:02:28.351Z,60.7
2019-04-04T01:07:28.702Z,60.7
2019-04-04T01:12:27.463Z,60.8
2019-04-04T01:17:28.406Z,60.7
2019-04-04T01:22:27.825Z,60.8
2019-04-04T01:27:28.017Z,60.8
2019-04-04T01:32:27.948Z,60.7
2019-04-04T01:37:28.345Z,60.8
2019-04-04T01:42:27.984Z,60.9
2019-04-04T01:47:29.766Z,60.8
2019-04-04T01:52:29.453Z,60.8
2019-04-04T01:57:28.019Z,60.8
2019-04-04T02:02:29.146Z,60.8
2019-04-04T02:07:30.744Z,61.0
2019-04-04T02:12:29.355Z,61.0
2019-04-04T02:17:27.821Z,61.0
2019-04-04T02:22:31.589Z,60.9
2019-04-04T02:27:28.409Z,60.8
2019-04-04T02:32:28.383Z,60.8
2019-04-04T02:37:27.944Z,60.7
2019-04-04T02:42:28.420Z,60.6
2019-04-04T02:47:27.615Z,60.8
2019-04-04T02:52:27.586Z,60.7
2019-04-04T02:57:28.066Z,60.7
2019-04-04T03:02:27.803Z,60.6
2019-04-04T03:07:31.443Z,60.5
2019-04-04T03:12:28.180Z,60.4
2019-04-04T03:17:32.785Z,60.4
2019-04-04T03:22:28.694Z,60.3
2019-04-04T03:27:28.600Z,60.5
2019-04-04T03:32:28.388Z,60.2
2019-04-04T03:37:28.254Z,60.3
2019-04-04T03:42:27.798Z,60.3
2019-04-04T03:47:28.991Z,60.2
2019-04-04T03:52:28.254Z,60.2
2019-04-04T03:57:28.049Z,60.2
2019-04-04T04:02:28.180Z,60.3
2019-04-04T04:07:28.447Z,60.3
2019-04-04T04:12:28.173Z,60.2
2019-04-04T04:17:28.055Z,60.2
2019-04-04T04:22:28.325Z,60.4
2019-04-04T04:27:28.868Z,60.4
2019-04-04T04:32:28.876Z,60.4
2019-04-04T04:37:28.133Z,60.3
2019-04-04T04:42:28.091Z,60.0
2019-04-04T04:47:28.381Z,60.4
2019-04-04T04:52:28.060Z,60.3
2019-04-04T04:57:30.433Z,60.4
2019-04-04T05:02:28.791Z,60.1
2019-04-04T05:07:28.886Z,60.1
2019-04-04T05:12:29.007Z,60.2
2019-04-04T05:17:28.789Z,60.2
2019-04-04T05:22:28.472Z,60.0
2019-04-04T05:27:28.875Z,60.2
2019-04-04T05:32:29.413Z,60.2
2019-04-04T05:37:28.803Z,60.2
2019-04-04T05:42:32.687Z,60.2
2019-04-04T05:47:29.729Z,60.2
2019-04-04T05:52:27.750Z,60.0
2019-04-04T05:57:28.961Z,59.9
2019-04-04T06:02:29.222Z,59.8
2019-04-04T06:07:29.160Z,59.8
2019-04-04T06:12:28.931Z,60.0
2019-04-04T06:17:29.457Z,60.1
2019-04-04T06:22:28.976Z,60.2
2019-04-04T06:27:28.890Z,60.0
2019-04-04T06:32:31.609Z,60.3
2019-04-04T06:37:28.186Z,60.1
2019-04-04T06:42:29.170Z,60.3
2019-04-04T06:47:28.885Z,60.2
2019-04-04T06:52:29.334Z,60.2
2019-04-04T06:57:28.372Z,60.4
2019-04-04T07:02:28.468Z,60.4
2019-04-04T07:07:29.461Z,60.6
2019-04-04T07:12:29.189Z,60.9
2019-04-04T07:17:28.615Z,60.9
2019-04-04T07:22:29.209Z,60.6
2019-04-04T07:27:28.617Z,60.8
2019-04-04T07:32:29.051Z,60.9
2019-04-04T07:37:28.213Z,60.8
2019-04-04T07:42:28.437Z,60.8
2019-04-04T07:47:28.576Z,60.8
2019-04-04T07:52:28.286Z,60.7
2019-04-04T07:57:30.757Z,60.8
2019-04-04T08:02:28.044Z,60.7
2019-04-04T08:07:29.360Z,60.8
2019-04-04T08:12:29.281Z,60.8
2019-04-04T08:17:28.650Z,60.8
2019-04-04T08:22:28.425Z,60.5
2019-04-04T08:27:30.133Z,60.5
2019-04-04T08:32:28.735Z,60.6
2019-04-04T08:37:29.336Z,60.6
2019-04-04T08:42:29.551Z,60.6
2019-04-04T08:47:29.350Z,60.6
2019-04-04T08:52:29.379Z,60.8
2019-04-04T08:57:28.736Z,60.3
2019-04-04T09:02:28.627Z,60.0
2019-04-04T09:07:30.303Z,60.2
2019-04-04T09:12:28.546Z,60.2
2019-04-04T09:17:29.883Z,60.2
2019-04-04T09:22:29.893Z,60.3
2019-04-04T09:27:29.064Z,60.3
2019-04-04T09:32:29.206Z,60.4
2019-04-04T09:37:28.413Z,60.4
2019-04-04T09:42:28.356Z,60.5
2019-04-04T09:47:28.769Z,60.4
2019-04-04T09:52:30.532Z,60.4
2019-04-04T09:57:29.484Z,60.3
2019-04-04T10:02:28.770Z,60.3
2019-04-04T10:07:29.314Z,60.4
2019-04-04T10:12:30.502Z,60.3
2019-04-04T10:17:28.767Z,60.2
2019-04-04T10:22:29.423Z,60.3
2019-04-04T10:27:29.412Z,60.1
2019-04-04T10:32:28.690Z,60.4
2019-04-04T10:37:29.320Z,59.6
2019-04-04T10:42:30.729Z,59.6
2019-04-04T10:47:29.620Z,59.5
2019-04-04T10:52:28.832Z,59.3
2019-04-04T10:57:28.429Z,59.3
2019-04-04T11:02:28.698Z,59.4
2019-04-04T11:07:28.445Z,59.4
2019-04-04T11:12:29.365Z,59.5
2019-04-04T11:17:28.836Z,60.1
2019-04-04T11:22:28.951Z,60.1
2019-04-04T11:27:28.114Z,60.4
2019-04-04T11:32:29.020Z,60.8
2019-04-04T11:37:28.930Z,60.4
2019-04-04T11:42:28.843Z,60.9
2019-04-04T11:47:29.465Z,60.8
2019-04-04T11:52:28.582Z,60.8
2019-04-04T11:57:28.462Z,60.7
2019-04-04T12:02:33.033Z,60.8
2019-04-04T12:07:29.408Z,60.7
2019-04-04T12:12:28.750Z,60.9
2019-04-04T12:17:28.933Z,60.9
2019-04-04T12:22:29.235Z,60.7
2019-04-04T12:27:28.491Z,60.4
2019-04-04T12:32:29.789Z,60.5
2019-04-04T12:37:28.693Z,60.7
2019-04-04T12:42:28.046Z,60.8
2019-04-04T12:47:28.480Z,60.5
2019-04-04T12:52:28.492Z,60.6
2019-04-04T12:57:28.300Z,60.7
2019-04-04T13:02:28.758Z,60.7
2019-04-04T13:07:28.542Z,60.8
2019-04-04T13:12:28.866Z,61.0
2019-04-04T13:17:29.342Z,60.6
2019-04-04T13:22:28.651Z,61.1
2019-04-04T13:27:29.289Z,61.0
2019-04-04T13:32:28.587Z,61.0
2019-04-04T13:37:29.314Z,60.9
2019-04-04T13:42:28.931Z,60.7
2019-04-04T13:47:28.716Z,60.7
2019-04-04T13:52:28.066Z,60.7
2019-04-04T13:57:28.372Z,60.6
2019-04-04T14:02:28.958Z,60.8
2019-04-04T14:07:29.635Z,60.2
2019-04-04T14:12:29.747Z,60.6
2019-04-04T14:17:28.703Z,60.8
2019-04-04T14:22:29.084Z,60.7
2019-04-04T14:27:30.261Z,60.6
2019-04-04T14:32:28.780Z,60.8
2019-04-04T14:37:29.198Z,61.2
2019-04-04T14:42:28.155Z,61.0
2019-04-04T14:47:29.361Z,61.0
2019-04-04T14:52:29.832Z,61.2
2019-04-04T14:57:28.740Z,61.2
2019-04-04T15:02:28.064Z,61.2
2019-04-04T15:07:29.238Z,61.2
2019-04-04T15:12:28.759Z,61.0
2019-04-04T15:17:28.971Z,61.0
2019-04-04T15:22:31.795Z,62.5
2019-04-04T15:27:29.082Z,63.0
2019-04-04T15:32:29.196Z,62.2
2019-04-04T15:37:28.663Z,62.0
2019-04-04T15:42:28.385Z,61.8
2019-04-04T15:47:28.939Z,61.5
2019-04-04T15:52:28.370Z,61.5
2019-04-04T15:57:28.344Z,61.0
2019-04-04T16:02:28.510Z,61.0
2019-04-04T16:07:28.832Z,61.0
2019-04-04T16:12:29.086Z,60.7
2019-04-04T16:17:29.716Z,60.5
2019-04-04T16:22:28.985Z,60.3
2019-04-04T16:27:29.299Z,60.1
2019-04-04T16:32:29.206Z,59.7
2019-04-04T16:37:28.639Z,59.6
2019-04-04T16:42:28.498Z,60.7
2019-04-04T16:47:29.997Z,60.6
2019-04-04T16:52:29.631Z,61.0
2019-04-04T16:57:29.729Z,61.4
2019-04-04T17:02:28.501Z,61.4
2019-04-04T17:07:29.207Z,61.5
2019-04-04T17:12:29.048Z,61.5
2019-04-04T17:17:28.558Z,61.5
2019-04-04T17:22:29.753Z,61.6
2019-04-04T17:27:28.752Z,61.6
2019-04-04T17:32:28.864Z,61.6
2019-04-04T17:37:29.274Z,61.8
2019-04-04T17:42:33.523Z,61.8
2019-04-04T17:47:29.333Z,62.0
2019-04-04T17:52:28.730Z,61.9
2019-04-04T17:57:28.683Z,62.0
2019-04-04T18:02:28.948Z,62.0
2019-04-04T18:07:29.594Z,61.9
2019-04-04T18:12:40.904Z,61.8
2019-04-04T18:17:28.678Z,61.8
2019-04-04T18:22:27.653Z,61.9
2019-04-04T18:27:28.111Z,61.8
2019-04-04T18:32:28.258Z,61.8
2019-04-04T18:37:28.748Z,61.7
2019-04-04T18:42:27.883Z,61.9
2019-04-04T18:47:28.176Z,61.9
2019-04-04T18:52:28.525Z,61.9
2019-04-04T18:57:28.258Z,61.9
2019-04-04T19:02:28.049Z,62.0
2019-04-04T19:07:39.952Z,62.0
2019-04-04T19:12:28.607Z,62.0
2019-04-04T19:17:28.808Z,62.0
2019-04-04T19:22:27.989Z,62.1
2019-04-04T19:27:28.337Z,62.2
2019-04-04T19:32:27.820Z,62.3
2019-04-04T19:37:27.988Z,62.3
2019-04-04T19:42:28.943Z,62.4
2019-04-04T19:47:28.995Z,62.4
2019-04-04T19:52:28.331Z,62.5
2019-04-04T19:57:27.718Z,62.5
2019-04-04T20:02:28.777Z,62.4
2019-04-04T20:07:28.875Z,62.4
2019-04-04T20:12:28.503Z,62.4
2019-04-04T20:17:28.314Z,62.2
2019-04-04T20:22:28.477Z,62.6
2019-04-04T20:27:28.429Z,62.2
2019-04-04T20:32:28.514Z,62.3
2019-04-04T20:37:30.003Z,62.3
2019-04-04T20:42:28.061Z,62.3
2019-04-04T20:47:28.418Z,62.4
2019-04-04T20:52:28.490Z,62.3
2019-04-04T20:57:28.357Z,62.3
2019-04-04T21:02:27.925Z,62.4
2019-04-04T21:07:28.503Z,62.4
2019-04-04T21:12:28.620Z,62.5
2019-04-04T21:17:28.809Z,62.4
2019-04-04T21:22:28.536Z,62.5
2019-04-04T21:27:28.100Z,62.3
2019-04-04T21:32:28.070Z,62.4
2019-04-04T21:37:28.159Z,62.4
2019-04-04T21:42:27.781Z,62.4
2019-04-04T21:47:29.079Z,62.3
2019-04-04T21:52:28.353Z,62.2
2019-04-04T21:57:28.253Z,62.2
2019-04-04T22:02:28.577Z,62.1
2019-04-04T22:07:28.505Z,62.2
2019-04-04T22:12:29.686Z,62.2
2019-04-04T22:23:05.705Z,61.6
2019-04-04T22:28:03.836Z,62.0
2019-04-04T22:33:03.766Z,61.9
2019-04-04T22:38:04.078Z,61.9
2019-04-04T22:43:03.607Z,61.8
2019-04-04T22:48:03.384Z,61.8
2019-04-04T22:53:03.615Z,61.8
2019-04-04T22:58:03.899Z,62.0
2019-04-04T23:03:03.953Z,61.8
2019-04-04T23:08:03.759Z,61.8
2019-04-04T23:12:27.986Z,61.7
2019-04-04T23:17:29.509Z,61.8
2019-04-04T23:22:28.570Z,61.7
2019-04-04T23:27:28.223Z,61.8
2019-04-04T23:32:28.159Z,61.9
2019-04-04T23:37:29.297Z,62.0
2019-04-04T23:42:28.372Z,61.9
2019-04-04T23:47:27.762Z,62.0
2019-04-04T23:52:28.172Z,61.9
2019-04-04T23:57:28.196Z,61.9
